createdAt,value
2018-08-27T00:00:20.000Z,31
2018-08-27T00:01:20.000Z,31
2018-08-27T00:02:20.000Z,31
2018-08-27T00:03:20.000Z,31
2018-08-27T00:05:20.000Z,31
2018-08-27T00:06:20.000Z,31
2018-08-27T00:07:20.000Z,31
2018-08-27T00:08:20.000Z,31
2018-08-27T00:09:20.000Z,31
2018-08-27T00:10:20.000Z,31
2018-08-27T00:11:20.000Z,31
2018-08-27T00:12:20.000Z,31
2018-08-27T00:13:20.000Z,31
2018-08-27T00:14:20.000Z,31
2018-08-27T00:15:20.000Z,31
2018-08-27T00:16:20.000Z,31
2018-08-27T00:17:20.000Z,31
2018-08-27T00:18:20.000Z,31
2018-08-27T00:19:20.000Z,31
2018-08-27T00:20:20.000Z,31
2018-08-27T00:22:20.000Z,31
2018-08-27T00:24:20.000Z,30
2018-08-27T00:25:20.000Z,31
2018-08-27T00:26:20.000Z,31
2018-08-27T00:28:20.000Z,31
2018-08-27T00:29:20.000Z,31
2018-08-27T00:30:20.000Z,31
2018-08-27T00:31:20.000Z,31
2018-08-27T00:32:20.000Z,31
2018-08-27T00:34:20.000Z,31
2018-08-27T00:35:20.000Z,31
2018-08-27T00:36:20.000Z,31
2018-08-27T00:37:20.000Z,31
2018-08-27T00:38:20.000Z,31
2018-08-27T00:39:20.000Z,31
2018-08-27T00:40:20.000Z,31
2018-08-27T00:42:20.000Z,31
2018-08-27T00:43:20.000Z,31
2018-08-27T00:44:20.000Z,31
2018-08-27T00:45:20.000Z,31
2018-08-27T00:46:20.000Z,31
2018-08-27T00:47:20.000Z,31
2018-08-27T00:48:20.000Z,31
2018-08-27T00:49:20.000Z,31
2018-08-27T00:50:20.000Z,31
2018-08-27T00:51:20.000Z,31
2018-08-27T00:52:20.000Z,31
2018-08-27T00:53:20.000Z,31
2018-08-27T00:54:20.000Z,31
2018-08-27T00:55:20.000Z,31
2018-08-27T00:56:20.000Z,31
2018-08-27T00:57:20.000Z,31
2018-08-27T00:59:20.000Z,31
2018-08-27T01:00:20.000Z,31
2018-08-27T01:01:20.000Z,31
2018-08-27T01:02:20.000Z,31
2018-08-27T01:04:20.000Z,31
2018-08-27T01:05:20.000Z,31
2018-08-27T01:06:20.000Z,31
2018-08-27T01:07:20.000Z,31
2018-08-27T01:09:20.000Z,31
2018-08-27T01:10:20.000Z,31
2018-08-27T01:11:20.000Z,31
2018-08-27T01:12:20.000Z,31
2018-08-27T01:13:20.000Z,31
2018-08-27T01:14:20.000Z,31
2018-08-27T01:15:20.000Z,31
2018-08-27T01:16:20.000Z,31
2018-08-27T01:17:20.000Z,31
2018-08-27T01:18:20.000Z,31
2018-08-27T01:19:20.000Z,31
2018-08-27T01:21:20.000Z,31
2018-08-27T01:22:20.000Z,31
2018-08-27T01:23:20.000Z,31
2018-08-27T01:24:20.000Z,31
2018-08-27T01:26:20.000Z,31
2018-08-27T01:27:20.000Z,31
2018-08-27T01:28:20.000Z,31
2018-08-27T01:30:20.000Z,31
2018-08-27T01:31:20.000Z,31
2018-08-27T01:32:20.000Z,31
2018-08-27T01:33:20.000Z,31
2018-08-27T01:34:20.000Z,31
2018-08-27T01:36:20.000Z,31
2018-08-27T01:37:20.000Z,31
2018-08-27T01:38:20.000Z,31
2018-08-27T01:39:20.000Z,31
2018-08-27T01:40:20.000Z,31
2018-08-27T01:42:20.000Z,30
2018-08-27T01:43:20.000Z,31
2018-08-27T01:44:20.000Z,30
2018-08-27T01:45:20.000Z,31
2018-08-27T01:46:20.000Z,30
2018-08-27T01:48:20.000Z,30
2018-08-27T01:49:20.000Z,31
2018-08-27T01:50:20.000Z,31
2018-08-27T01:51:20.000Z,31
2018-08-27T01:52:20.000Z,31
2018-08-27T01:53:20.000Z,31
2018-08-27T01:54:20.000Z,31
2018-08-27T01:55:20.000Z,31
2018-08-27T01:56:20.000Z,31
2018-08-27T01:57:20.000Z,31
2018-08-27T01:58:20.000Z,31
2018-08-27T01:59:20.000Z,31
2018-08-27T02:00:20.000Z,31
2018-08-27T02:01:20.000Z,31
2018-08-27T02:02:20.000Z,31
2018-08-27T02:04:20.000Z,31
2018-08-27T02:05:20.000Z,31
2018-08-27T02:07:20.000Z,31
2018-08-27T02:08:20.000Z,31
2018-08-27T02:09:20.000Z,31
2018-08-27T02:10:20.000Z,31
2018-08-27T02:11:20.000Z,31
2018-08-27T02:12:20.000Z,31
2018-08-27T02:13:20.000Z,30
2018-08-27T02:14:20.000Z,31
2018-08-27T02:15:20.000Z,30
2018-08-27T02:17:20.000Z,30
2018-08-27T02:18:20.000Z,30
2018-08-27T02:19:20.000Z,30
2018-08-27T02:20:20.000Z,31
2018-08-27T02:21:20.000Z,31
2018-08-27T02:22:20.000Z,31
2018-08-27T02:23:20.000Z,30
2018-08-27T02:24:20.000Z,31
2018-08-27T02:25:20.000Z,31
2018-08-27T02:26:20.000Z,31
2018-08-27T02:27:20.000Z,30
2018-08-27T02:28:20.000Z,30
2018-08-27T02:29:20.000Z,31
2018-08-27T02:30:20.000Z,30
2018-08-27T02:31:20.000Z,30
2018-08-27T02:32:20.000Z,30
2018-08-27T02:33:20.000Z,30
2018-08-27T03:14:00.000Z,33
2018-08-27T03:15:00.000Z,33
2018-08-27T03:16:00.000Z,33
2018-08-27T03:18:00.000Z,33
2018-08-27T03:19:00.000Z,33
2018-08-27T03:20:00.000Z,33
2018-08-27T03:21:00.000Z,32
2018-08-27T03:22:00.000Z,32
2018-08-27T03:23:00.000Z,32
2018-08-27T03:24:00.000Z,32
2018-08-27T03:25:00.000Z,32
2018-08-27T03:27:00.000Z,32
2018-08-27T03:28:00.000Z,32
2018-08-27T03:30:00.000Z,31
2018-08-27T03:31:00.000Z,31
2018-08-27T03:32:00.000Z,31
2018-08-27T03:34:00.000Z,31
2018-08-27T03:36:01.000Z,31
2018-08-27T03:37:01.000Z,31
2018-08-27T03:38:01.000Z,31
2018-08-27T03:39:01.000Z,31
2018-08-27T03:40:01.000Z,31
2018-08-27T03:41:01.000Z,31
2018-08-27T03:42:01.000Z,31
2018-08-27T03:43:01.000Z,31
2018-08-27T03:44:01.000Z,31
2018-08-27T03:45:01.000Z,31
2018-08-27T03:46:01.000Z,31
2018-08-27T03:48:01.000Z,31
2018-08-27T03:49:01.000Z,31
2018-08-27T03:50:01.000Z,31
2018-08-27T03:51:01.000Z,31
2018-08-27T03:52:01.000Z,31
2018-08-27T03:55:01.000Z,31
2018-08-27T03:56:01.000Z,31
2018-08-27T03:57:01.000Z,31
2018-08-27T03:59:01.000Z,31
2018-08-27T04:00:01.000Z,31
2018-08-27T04:01:01.000Z,31
2018-08-27T04:02:01.000Z,31
2018-08-27T04:03:01.000Z,31
2018-08-27T04:05:01.000Z,31
2018-08-27T04:06:01.000Z,31
2018-08-27T04:07:01.000Z,31
2018-08-27T04:08:01.000Z,31
2018-08-27T04:09:01.000Z,31
2018-08-27T04:10:01.000Z,31
2018-08-27T04:11:01.000Z,31
2018-08-27T04:12:01.000Z,31
2018-08-27T04:13:01.000Z,31
2018-08-27T04:14:01.000Z,31
2018-08-27T04:15:01.000Z,31
2018-08-27T04:16:01.000Z,31
2018-08-27T04:17:01.000Z,31
2018-08-27T04:18:01.000Z,31
2018-08-27T04:19:01.000Z,31
2018-08-27T04:20:01.000Z,31
2018-08-27T04:21:01.000Z,31
2018-08-27T04:22:01.000Z,31
2018-08-27T04:23:01.000Z,31
2018-08-27T04:24:01.000Z,31
2018-08-27T04:25:01.000Z,31
2018-08-27T04:26:01.000Z,31
2018-08-27T04:27:01.000Z,31
2018-08-27T04:28:01.000Z,31
2018-08-27T04:29:01.000Z,32
2018-08-27T04:31:01.000Z,32
2018-08-27T04:32:01.000Z,32
2018-08-27T04:33:01.000Z,32
2018-08-27T04:35:01.000Z,33
2018-08-27T04:36:01.000Z,33
2018-08-27T04:37:01.000Z,34
2018-08-27T04:38:01.000Z,34
2018-08-27T04:39:00.000Z,34
2018-08-27T04:40:00.000Z,34
2018-08-27T04:41:00.000Z,34
2018-08-27T04:43:00.000Z,34
2018-08-27T04:44:00.000Z,35
2018-08-27T04:45:00.000Z,35
2018-08-27T04:46:00.000Z,35
2018-08-27T04:47:00.000Z,35
2018-08-27T04:48:00.000Z,35
2018-08-27T04:50:00.000Z,35
2018-08-27T04:51:00.000Z,35
2018-08-27T04:52:00.000Z,35
2018-08-27T04:53:00.000Z,36
2018-08-27T04:54:00.000Z,36
2018-08-27T04:55:00.000Z,36
2018-08-27T04:56:00.000Z,36
2018-08-27T04:57:00.000Z,36
2018-08-27T04:58:00.000Z,36
2018-08-27T04:59:00.000Z,36
2018-08-27T05:00:00.000Z,36
2018-08-27T05:01:00.000Z,36
2018-08-27T05:03:00.000Z,36
2018-08-27T05:05:00.000Z,36
2018-08-27T05:06:00.000Z,36
2018-08-27T05:07:00.000Z,36
2018-08-27T05:08:00.000Z,36
2018-08-27T05:09:00.000Z,37
2018-08-27T05:10:00.000Z,37
2018-08-27T05:11:00.000Z,36
2018-08-27T05:12:00.000Z,36
2018-08-27T05:13:00.000Z,36
2018-08-27T05:14:00.000Z,37
2018-08-27T05:15:00.000Z,37
2018-08-27T05:16:00.000Z,36
2018-08-27T05:17:00.000Z,37
2018-08-27T05:18:00.000Z,37
2018-08-27T05:19:00.000Z,37
2018-08-27T05:20:00.000Z,37
2018-08-27T05:21:00.000Z,37
2018-08-27T05:23:00.000Z,37
2018-08-27T05:24:00.000Z,37
2018-08-27T05:25:00.000Z,37
2018-08-27T05:26:00.000Z,37
2018-08-27T05:27:00.000Z,37
2018-08-27T05:28:00.000Z,37
2018-08-27T05:29:00.000Z,37
2018-08-27T05:30:00.000Z,38
2018-08-27T05:31:00.000Z,38
2018-08-27T05:32:00.000Z,38
2018-08-27T05:33:00.000Z,38
2018-08-27T05:34:00.000Z,38
2018-08-27T05:35:00.000Z,38
2018-08-27T05:37:00.000Z,38
2018-08-27T05:38:00.000Z,38
2018-08-27T05:39:00.000Z,38
2018-08-27T05:40:00.000Z,38
2018-08-27T05:41:00.000Z,38
2018-08-27T05:42:00.000Z,38
2018-08-27T05:43:00.000Z,38
2018-08-27T05:44:00.000Z,38
2018-08-27T05:45:00.000Z,38
2018-08-27T05:46:00.000Z,38
2018-08-27T05:47:00.000Z,38
2018-08-27T05:48:00.000Z,38
2018-08-27T05:49:00.000Z,38
2018-08-27T05:50:00.000Z,38
2018-08-27T05:51:00.000Z,38
2018-08-27T05:52:00.000Z,38
2018-08-27T05:53:00.000Z,39
2018-08-27T05:54:00.000Z,39
2018-08-27T05:55:00.000Z,39
2018-08-27T05:56:00.000Z,39
2018-08-27T05:57:00.000Z,38
2018-08-27T05:58:00.000Z,39
2018-08-27T05:59:00.000Z,39
2018-08-27T06:00:00.000Z,38
2018-08-27T06:01:00.000Z,38
2018-08-27T06:02:00.000Z,39
2018-08-27T06:03:00.000Z,38
2018-08-27T06:04:00.000Z,38
2018-08-27T06:05:00.000Z,38
2018-08-27T06:06:00.000Z,38
2018-08-27T06:07:00.000Z,39
2018-08-27T06:08:00.000Z,39
2018-08-27T06:09:00.000Z,39
2018-08-27T06:10:00.000Z,39
2018-08-27T06:11:00.000Z,39
2018-08-27T06:12:00.000Z,39
2018-08-27T06:13:00.000Z,39
2018-08-27T06:14:00.000Z,39
2018-08-27T06:15:00.000Z,39
2018-08-27T06:16:00.000Z,39
2018-08-27T06:17:00.000Z,39
2018-08-27T06:18:00.000Z,39
2018-08-27T06:19:00.000Z,39
2018-08-27T06:20:00.000Z,39
2018-08-27T06:21:00.000Z,39
2018-08-27T06:22:00.000Z,39
2018-08-27T06:23:00.000Z,39
2018-08-27T06:24:00.000Z,39
2018-08-27T06:25:00.000Z,39
2018-08-27T06:26:00.000Z,39
2018-08-27T06:27:00.000Z,39
2018-08-27T06:28:00.000Z,39
2018-08-27T06:29:00.000Z,39
2018-08-27T06:30:00.000Z,40
2018-08-27T06:31:00.000Z,40
2018-08-27T06:32:00.000Z,40
2018-08-27T06:33:00.000Z,40
2018-08-27T06:35:00.000Z,39
2018-08-27T06:36:00.000Z,40
2018-08-27T06:37:00.000Z,39
2018-08-27T06:38:00.000Z,40
2018-08-27T06:39:00.000Z,40
2018-08-27T06:40:00.000Z,40
2018-08-27T06:42:00.000Z,40
2018-08-27T06:44:00.000Z,40
2018-08-27T06:45:00.000Z,40
2018-08-27T06:46:00.000Z,40
2018-08-27T06:47:00.000Z,40
2018-08-27T06:48:00.000Z,40
2018-08-27T06:49:00.000Z,40
2018-08-27T06:50:00.000Z,40
2018-08-27T06:51:00.000Z,40
2018-08-27T06:52:00.000Z,40
2018-08-27T06:53:00.000Z,40
2018-08-27T06:54:00.000Z,40
2018-08-27T06:55:00.000Z,40
2018-08-27T06:56:00.000Z,40
2018-08-27T06:57:00.000Z,40
2018-08-27T06:58:00.000Z,40
2018-08-27T06:59:00.000Z,40
2018-08-27T07:00:00.000Z,40
2018-08-27T07:01:00.000Z,40
2018-08-27T07:02:00.000Z,40
2018-08-27T07:03:00.000Z,40
2018-08-27T07:04:00.000Z,40
2018-08-27T07:05:00.000Z,40
2018-08-27T07:06:00.000Z,40
2018-08-27T07:07:00.000Z,40
2018-08-27T07:08:00.000Z,40
2018-08-27T07:09:00.000Z,40
2018-08-27T07:10:00.000Z,40
2018-08-27T07:11:00.000Z,40
2018-08-27T07:12:00.000Z,40
2018-08-27T07:13:00.000Z,40
2018-08-27T07:14:00.000Z,40
2018-08-27T07:15:00.000Z,40
2018-08-27T07:16:00.000Z,40
2018-08-27T07:17:00.000Z,40
2018-08-27T07:18:00.000Z,40
2018-08-27T07:19:00.000Z,40
2018-08-27T07:20:00.000Z,40
2018-08-27T07:22:00.000Z,40
2018-08-27T07:23:00.000Z,40
2018-08-27T07:25:00.000Z,40
2018-08-27T07:26:00.000Z,40
2018-08-27T07:27:00.000Z,40
2018-08-27T07:28:00.000Z,40
2018-08-27T07:30:00.000Z,40
2018-08-27T07:32:00.000Z,40
2018-08-27T07:33:00.000Z,41
2018-08-27T07:34:00.000Z,40
2018-08-27T07:35:00.000Z,41
2018-08-27T07:36:00.000Z,41
2018-08-27T07:37:00.000Z,41
2018-08-27T07:38:00.000Z,41
2018-08-27T07:39:00.000Z,40
2018-08-27T07:40:00.000Z,41
2018-08-27T07:41:00.000Z,40
2018-08-27T07:42:00.000Z,41
2018-08-27T07:43:00.000Z,41
2018-08-27T07:44:00.000Z,40
2018-08-27T07:45:00.000Z,41
2018-08-27T07:46:00.000Z,41
2018-08-27T07:47:00.000Z,40
2018-08-27T07:48:00.000Z,41
2018-08-27T07:49:00.000Z,41
2018-08-27T07:50:00.000Z,41
2018-08-27T07:51:00.000Z,40
2018-08-27T07:52:00.000Z,41
2018-08-27T07:53:00.000Z,40
2018-08-27T07:54:00.000Z,41
2018-08-27T07:55:00.000Z,41
2018-08-27T07:56:00.000Z,41
2018-08-27T07:57:00.000Z,41
2018-08-27T07:58:00.000Z,40
2018-08-27T07:59:00.000Z,41
2018-08-27T08:00:00.000Z,41
2018-08-27T08:01:00.000Z,40
2018-08-27T08:02:00.000Z,40
2018-08-27T08:04:00.000Z,40
2018-08-27T08:05:00.000Z,40
2018-08-27T08:06:00.000Z,41
2018-08-27T08:08:00.000Z,41
2018-08-27T08:09:00.000Z,41
2018-08-27T08:10:00.000Z,41
2018-08-27T08:11:00.000Z,41
2018-08-27T08:12:00.000Z,41
2018-08-27T08:13:00.000Z,41
2018-08-27T08:14:00.000Z,41
2018-08-27T08:15:00.000Z,41
2018-08-27T08:16:00.000Z,41
2018-08-27T08:18:00.000Z,41
2018-08-27T08:19:00.000Z,41
2018-08-27T08:20:00.000Z,41
2018-08-27T08:21:00.000Z,41
2018-08-27T08:22:00.000Z,41
2018-08-27T08:23:00.000Z,41
2018-08-27T08:24:00.000Z,41
2018-08-27T08:25:00.000Z,41
2018-08-27T08:26:00.000Z,41
2018-08-27T08:27:00.000Z,41
2018-08-27T08:28:00.000Z,41
2018-08-27T08:29:00.000Z,41
2018-08-27T08:30:00.000Z,40
2018-08-27T08:31:00.000Z,40
2018-08-27T08:32:00.000Z,41
2018-08-27T08:33:00.000Z,40
2018-08-27T08:34:00.000Z,40
2018-08-27T08:35:00.000Z,40
2018-08-27T08:36:00.000Z,41
2018-08-27T08:38:00.000Z,40
2018-08-27T08:39:00.000Z,41
2018-08-27T08:40:00.000Z,41
2018-08-27T08:42:00.000Z,40
2018-08-27T08:43:00.000Z,41
2018-08-27T08:44:00.000Z,41
2018-08-27T08:45:00.000Z,40
2018-08-27T08:46:00.000Z,40
2018-08-27T08:48:00.000Z,40
2018-08-27T08:49:00.000Z,40
2018-08-27T08:50:00.000Z,40
2018-08-27T08:52:00.000Z,40
2018-08-27T08:53:00.000Z,41
2018-08-27T08:54:01.000Z,41
2018-08-27T08:55:01.000Z,41
2018-08-27T08:56:01.000Z,41
2018-08-27T08:57:01.000Z,41
2018-08-27T08:58:01.000Z,41
2018-08-27T08:59:01.000Z,41
2018-08-27T09:01:01.000Z,41
2018-08-27T09:02:01.000Z,41
2018-08-27T09:04:01.000Z,41
2018-08-27T09:05:01.000Z,41
2018-08-27T09:06:01.000Z,41
2018-08-27T09:07:01.000Z,41
2018-08-27T09:08:01.000Z,41
2018-08-27T09:09:01.000Z,41
2018-08-27T09:10:01.000Z,41
2018-08-27T09:11:01.000Z,41
2018-08-27T09:12:01.000Z,41
2018-08-27T09:14:01.000Z,41
2018-08-27T09:15:01.000Z,41
2018-08-27T09:16:01.000Z,41
2018-08-27T09:17:01.000Z,41
2018-08-27T09:18:01.000Z,41
2018-08-27T09:19:01.000Z,41
2018-08-27T09:20:01.000Z,41
2018-08-27T09:21:01.000Z,41
2018-08-27T09:22:01.000Z,41
2018-08-27T09:23:01.000Z,41
2018-08-27T09:24:01.000Z,41
2018-08-27T09:26:01.000Z,41
2018-08-27T09:27:01.000Z,41
2018-08-27T09:28:01.000Z,41
2018-08-27T09:29:01.000Z,41
2018-08-27T09:30:01.000Z,41
2018-08-27T09:31:01.000Z,41
2018-08-27T09:32:01.000Z,41
2018-08-27T09:33:01.000Z,41
2018-08-27T09:34:01.000Z,41
2018-08-27T09:35:01.000Z,41
2018-08-27T09:36:01.000Z,41
2018-08-27T09:38:01.000Z,41
2018-08-27T09:39:01.000Z,41
2018-08-27T09:40:01.000Z,41
2018-08-27T09:41:01.000Z,41
2018-08-27T09:43:01.000Z,41
2018-08-27T09:44:01.000Z,41
2018-08-27T09:45:01.000Z,41
2018-08-27T09:46:01.000Z,41
2018-08-27T09:47:01.000Z,41
2018-08-27T09:50:47.000Z,41
2018-08-27T09:51:47.000Z,41
2018-08-27T09:52:47.000Z,41
2018-08-27T09:53:47.000Z,42
2018-08-27T09:54:47.000Z,41
2018-08-27T09:55:47.000Z,41
2018-08-27T09:56:47.000Z,41
2018-08-27T09:57:46.000Z,41
2018-08-27T09:58:46.000Z,41
2018-08-27T09:59:46.000Z,41
2018-08-27T10:00:46.000Z,41
2018-08-27T10:01:46.000Z,41
2018-08-27T10:02:46.000Z,41
2018-08-27T10:03:46.000Z,41
2018-08-27T10:05:46.000Z,41
2018-08-27T10:06:46.000Z,41
2018-08-27T10:07:46.000Z,41
2018-08-27T10:09:46.000Z,41
2018-08-27T10:10:46.000Z,41
2018-08-27T10:11:46.000Z,41
2018-08-27T10:12:46.000Z,41
2018-08-27T10:13:46.000Z,41
2018-08-27T10:14:46.000Z,41
2018-08-27T10:15:46.000Z,41
2018-08-27T10:16:46.000Z,41
2018-08-27T10:18:46.000Z,41
2018-08-27T10:19:46.000Z,41
2018-08-27T10:21:46.000Z,41
2018-08-27T10:22:46.000Z,41
2018-08-27T10:23:46.000Z,41
2018-08-27T10:24:46.000Z,41
2018-08-27T10:25:46.000Z,41
2018-08-27T10:26:46.000Z,41
2018-08-27T10:28:46.000Z,41
2018-08-27T10:29:46.000Z,41
2018-08-27T10:31:46.000Z,40
2018-08-27T10:32:46.000Z,40
2018-08-27T10:33:46.000Z,40
2018-08-27T10:34:46.000Z,40
2018-08-27T10:35:46.000Z,40
2018-08-27T10:36:46.000Z,41
2018-08-27T10:37:46.000Z,41
2018-08-27T10:38:46.000Z,41
2018-08-27T10:40:46.000Z,41
2018-08-27T10:41:46.000Z,41
2018-08-27T10:42:46.000Z,41
2018-08-27T10:43:46.000Z,41
2018-08-27T10:44:46.000Z,41
2018-08-27T10:46:46.000Z,41
2018-08-27T10:47:46.000Z,41
2018-08-27T10:48:46.000Z,41
2018-08-27T10:49:46.000Z,41
2018-08-27T10:50:46.000Z,41
2018-08-27T10:51:46.000Z,41
2018-08-27T10:55:39.000Z,40
2018-08-27T10:56:39.000Z,40
2018-08-27T10:57:39.000Z,40
2018-08-27T10:58:39.000Z,40
2018-08-27T10:59:39.000Z,40
2018-08-27T11:00:39.000Z,40
2018-08-27T11:01:39.000Z,40
2018-08-27T11:02:39.000Z,40
2018-08-27T11:03:39.000Z,40
2018-08-27T11:04:39.000Z,40
2018-08-27T11:05:39.000Z,40
2018-08-27T11:06:39.000Z,40
2018-08-27T11:07:39.000Z,40
2018-08-27T11:08:39.000Z,40
2018-08-27T11:10:39.000Z,40
2018-08-27T11:11:39.000Z,41
2018-08-27T11:12:39.000Z,41
2018-08-27T11:13:39.000Z,41
2018-08-27T11:14:39.000Z,41
2018-08-27T11:15:39.000Z,41
2018-08-27T11:16:39.000Z,41
2018-08-27T11:17:39.000Z,41
2018-08-27T11:18:39.000Z,41
2018-08-27T11:19:39.000Z,41
2018-08-27T11:20:39.000Z,41
2018-08-27T11:21:39.000Z,41
2018-08-27T11:22:39.000Z,41
2018-08-27T11:24:39.000Z,41
2018-08-27T11:25:39.000Z,41
2018-08-27T11:26:39.000Z,41
2018-08-27T11:27:39.000Z,41
2018-08-27T11:28:39.000Z,40
2018-08-27T11:29:39.000Z,40
2018-08-27T11:30:39.000Z,40
2018-08-27T11:31:39.000Z,39
2018-08-27T11:32:39.000Z,39
2018-08-27T11:33:39.000Z,38
2018-08-27T11:35:39.000Z,37
2018-08-27T11:36:39.000Z,36
2018-08-27T11:37:39.000Z,36
2018-08-27T11:38:39.000Z,35
2018-08-27T11:39:39.000Z,35
2018-08-27T11:40:39.000Z,35
2018-08-27T11:41:39.000Z,35
2018-08-27T11:42:39.000Z,35
2018-08-27T11:44:39.000Z,34
2018-08-27T11:45:39.000Z,33
2018-08-27T11:47:39.000Z,33
2018-08-27T11:49:39.000Z,32
2018-08-27T11:50:39.000Z,32
2018-08-27T11:51:39.000Z,32
2018-08-27T11:52:39.000Z,32
2018-08-27T11:53:39.000Z,32
2018-08-27T11:54:39.000Z,33
2018-08-27T11:56:39.000Z,33
2018-08-27T11:57:39.000Z,34
2018-08-27T11:59:40.000Z,34
2018-08-27T12:00:40.000Z,35
2018-08-27T12:01:40.000Z,35
2018-08-27T12:02:40.000Z,35
2018-08-27T12:03:40.000Z,35
2018-08-27T12:04:40.000Z,35
2018-08-27T12:05:40.000Z,35
2018-08-27T12:06:40.000Z,36
2018-08-27T12:08:40.000Z,36
2018-08-27T12:09:40.000Z,36
2018-08-27T12:10:40.000Z,36
2018-08-27T12:11:40.000Z,36
2018-08-27T12:12:40.000Z,36
2018-08-27T12:14:40.000Z,36
2018-08-27T12:15:40.000Z,36
2018-08-27T12:17:40.000Z,36
2018-08-27T12:18:40.000Z,37
2018-08-27T12:19:40.000Z,36
2018-08-27T12:20:40.000Z,36
2018-08-27T12:21:40.000Z,36
2018-08-27T12:22:40.000Z,36
2018-08-27T12:23:40.000Z,36
2018-08-27T12:24:40.000Z,36
2018-08-27T12:26:40.000Z,36
2018-08-27T12:27:40.000Z,36
2018-08-27T12:28:40.000Z,36
2018-08-27T12:29:40.000Z,35
2018-08-27T12:30:40.000Z,35
2018-08-27T12:31:40.000Z,35
2018-08-27T12:32:40.000Z,35
2018-08-27T12:33:40.000Z,35
2018-08-27T12:34:40.000Z,35
2018-08-27T12:35:40.000Z,35
2018-08-27T12:36:40.000Z,35
2018-08-27T12:37:40.000Z,35
2018-08-27T12:38:40.000Z,35
2018-08-27T12:39:40.000Z,35
2018-08-27T12:40:40.000Z,35
2018-08-27T12:42:40.000Z,34
2018-08-27T12:43:40.000Z,35
2018-08-27T12:44:40.000Z,35
2018-08-27T12:46:40.000Z,34
2018-08-27T12:48:40.000Z,34
2018-08-27T12:49:40.000Z,35
2018-08-27T12:50:40.000Z,35
2018-08-27T12:52:40.000Z,34
2018-08-27T12:53:40.000Z,35
2018-08-27T12:54:40.000Z,35
2018-08-27T12:55:40.000Z,35
2018-08-27T12:56:40.000Z,34
2018-08-27T12:57:40.000Z,35
2018-08-27T12:58:40.000Z,34
2018-08-27T12:59:40.000Z,34
2018-08-27T13:01:40.000Z,34
2018-08-27T13:02:40.000Z,34
2018-08-27T13:03:40.000Z,34
2018-08-27T13:04:40.000Z,34
2018-08-27T13:05:40.000Z,34
2018-08-27T13:06:40.000Z,34
2018-08-27T13:07:40.000Z,34
2018-08-27T13:08:40.000Z,34
2018-08-27T13:10:40.000Z,34
2018-08-27T13:11:40.000Z,34
2018-08-27T13:12:40.000Z,34
2018-08-27T13:13:40.000Z,33
2018-08-27T13:14:40.000Z,33
2018-08-27T13:15:40.000Z,33
2018-08-27T13:17:40.000Z,33
2018-08-27T13:18:40.000Z,33
2018-08-27T13:19:40.000Z,33
2018-08-27T13:20:40.000Z,33
2018-08-27T13:21:40.000Z,33
2018-08-27T13:22:40.000Z,33
2018-08-27T13:23:40.000Z,33
2018-08-27T13:24:40.000Z,33
2018-08-27T13:26:40.000Z,33
2018-08-27T13:27:40.000Z,33
2018-08-27T13:28:40.000Z,33
2018-08-27T13:29:40.000Z,33
2018-08-27T13:30:40.000Z,33
2018-08-27T13:31:40.000Z,32
2018-08-27T13:32:40.000Z,32
2018-08-27T13:33:40.000Z,31
2018-08-27T13:35:40.000Z,30
2018-08-27T13:36:40.000Z,30
2018-08-27T13:37:40.000Z,30
2018-08-27T13:38:40.000Z,30
2018-08-27T13:42:26.000Z,31
2018-08-27T13:43:26.000Z,31
2018-08-27T13:44:26.000Z,31
2018-08-27T13:45:26.000Z,31
2018-08-27T13:46:26.000Z,32
2018-08-27T13:48:26.000Z,31
2018-08-27T13:49:26.000Z,32
2018-08-27T13:51:26.000Z,32
2018-08-27T13:52:26.000Z,32
2018-08-27T13:53:26.000Z,32
2018-08-27T13:55:26.000Z,32
2018-08-27T13:56:26.000Z,32
2018-08-27T13:57:26.000Z,32
2018-08-27T13:58:26.000Z,32
2018-08-27T13:59:26.000Z,32
2018-08-27T14:00:26.000Z,32
2018-08-27T14:01:26.000Z,32
2018-08-27T14:02:26.000Z,32
2018-08-27T14:03:26.000Z,32
2018-08-27T14:04:26.000Z,32
2018-08-27T14:05:26.000Z,32
2018-08-27T14:06:26.000Z,32
2018-08-27T14:07:26.000Z,32
2018-08-27T14:09:26.000Z,32
2018-08-27T14:10:26.000Z,32
2018-08-27T14:11:26.000Z,32
2018-08-27T14:12:26.000Z,32
2018-08-27T14:13:26.000Z,32
2018-08-27T14:14:26.000Z,32
2018-08-27T14:15:26.000Z,32
2018-08-27T14:16:26.000Z,32
2018-08-27T14:17:26.000Z,32
2018-08-27T14:19:26.000Z,32
2018-08-27T14:20:26.000Z,32
2018-08-27T14:21:26.000Z,32
2018-08-27T14:22:26.000Z,32
2018-08-27T14:23:26.000Z,32
2018-08-27T14:24:26.000Z,32
2018-08-27T14:26:26.000Z,32
2018-08-27T14:27:26.000Z,32
2018-08-27T14:28:26.000Z,32
2018-08-27T14:29:26.000Z,32
2018-08-27T14:30:26.000Z,32
2018-08-27T14:31:26.000Z,32
2018-08-27T14:32:26.000Z,32
2018-08-27T14:33:26.000Z,32
2018-08-27T14:34:26.000Z,32
2018-08-27T14:35:26.000Z,32
2018-08-27T14:36:26.000Z,32
2018-08-27T14:37:26.000Z,32
2018-08-27T14:38:26.000Z,32
2018-08-27T14:40:26.000Z,32
2018-08-27T14:41:26.000Z,32
2018-08-27T14:42:26.000Z,32
2018-08-27T14:43:26.000Z,32
2018-08-27T14:44:26.000Z,32
2018-08-27T14:46:26.000Z,32
2018-08-27T14:47:26.000Z,32
2018-08-27T14:48:26.000Z,32
2018-08-27T14:49:26.000Z,32
2018-08-27T14:50:26.000Z,32
2018-08-27T14:51:26.000Z,32
2018-08-27T14:52:26.000Z,32
2018-08-27T14:53:26.000Z,32
2018-08-27T14:54:26.000Z,32
2018-08-27T14:55:26.000Z,32
2018-08-27T14:56:26.000Z,32
2018-08-27T14:57:26.000Z,32
2018-08-27T14:58:26.000Z,32
2018-08-27T14:59:26.000Z,32
2018-08-27T15:00:26.000Z,32
2018-08-27T15:01:26.000Z,32
2018-08-27T15:02:26.000Z,32
2018-08-27T15:03:26.000Z,32
2018-08-27T15:05:26.000Z,32
2018-08-27T15:06:26.000Z,32
2018-08-27T15:07:26.000Z,32
2018-08-27T15:08:26.000Z,32
2018-08-27T15:10:26.000Z,32
2018-08-27T15:11:26.000Z,32
2018-08-27T15:12:26.000Z,32
2018-08-27T15:13:26.000Z,32
2018-08-27T15:14:26.000Z,32
2018-08-27T15:15:26.000Z,32
2018-08-27T15:16:26.000Z,32
2018-08-27T15:17:26.000Z,32
2018-08-27T15:18:26.000Z,32
2018-08-27T15:19:26.000Z,32
2018-08-27T15:21:26.000Z,32
2018-08-27T15:22:26.000Z,32
2018-08-27T15:23:26.000Z,32
2018-08-27T15:24:26.000Z,32
2018-08-27T15:25:26.000Z,32
2018-08-27T15:27:26.000Z,32
2018-08-27T15:28:26.000Z,32
2018-08-27T15:29:26.000Z,32
2018-08-27T15:30:26.000Z,32
2018-08-27T15:32:26.000Z,32
2018-08-27T15:33:26.000Z,32
2018-08-27T15:35:26.000Z,32
2018-08-27T15:36:26.000Z,32
2018-08-27T15:37:26.000Z,32
2018-08-27T15:38:26.000Z,32
2018-08-27T15:39:26.000Z,32
2018-08-27T15:40:26.000Z,32
2018-08-27T15:41:26.000Z,32
2018-08-27T15:42:26.000Z,32
2018-08-27T15:43:26.000Z,32
2018-08-27T15:44:26.000Z,32
2018-08-27T15:45:26.000Z,32
2018-08-27T15:46:26.000Z,32
2018-08-27T15:47:26.000Z,32
2018-08-27T15:48:26.000Z,32
2018-08-27T15:49:26.000Z,32
2018-08-27T15:50:26.000Z,32
2018-08-27T15:51:26.000Z,32
2018-08-27T15:52:26.000Z,32
2018-08-27T15:53:26.000Z,32
2018-08-27T15:54:26.000Z,32
2018-08-27T15:55:26.000Z,32
2018-08-27T15:56:26.000Z,32
2018-08-27T15:58:26.000Z,32
2018-08-27T15:59:26.000Z,32
2018-08-27T16:00:26.000Z,32
2018-08-27T16:01:26.000Z,32
2018-08-27T16:03:26.000Z,32
2018-08-27T16:04:26.000Z,32
2018-08-27T16:05:26.000Z,32
2018-08-27T16:06:26.000Z,32
2018-08-27T16:07:26.000Z,32
2018-08-27T16:08:26.000Z,32
2018-08-27T16:09:26.000Z,32
2018-08-27T16:10:26.000Z,32
2018-08-27T16:11:26.000Z,32
2018-08-27T16:13:26.000Z,32
2018-08-27T16:15:26.000Z,32
2018-08-27T16:16:26.000Z,32
2018-08-27T16:17:26.000Z,32
2018-08-27T16:18:26.000Z,32
2018-08-27T16:19:26.000Z,32
2018-08-27T16:21:26.000Z,32
2018-08-27T16:22:26.000Z,32
2018-08-27T16:23:26.000Z,32
2018-08-27T16:24:26.000Z,32
2018-08-27T16:26:26.000Z,32
2018-08-27T16:27:26.000Z,32
2018-08-27T16:28:26.000Z,32
2018-08-27T16:29:26.000Z,32
2018-08-27T16:30:26.000Z,32
2018-08-27T16:31:26.000Z,32
2018-08-27T16:32:26.000Z,32
2018-08-27T16:34:26.000Z,32
2018-08-27T16:35:26.000Z,32
2018-08-27T16:37:26.000Z,32
2018-08-27T16:38:26.000Z,32
2018-08-27T16:39:26.000Z,32
2018-08-27T16:40:26.000Z,32
2018-08-27T16:41:26.000Z,32
2018-08-27T16:43:26.000Z,32
2018-08-27T16:44:26.000Z,32
2018-08-27T16:45:26.000Z,32
2018-08-27T16:46:26.000Z,32
2018-08-27T16:47:26.000Z,32
2018-08-27T16:48:26.000Z,32
2018-08-27T16:49:26.000Z,32
2018-08-27T16:50:26.000Z,32
2018-08-27T16:51:26.000Z,32